sensor_id;sensor_type;location;lat;lon;timestamp;pressure;altitude;pressure_sealevel;temperature;humidity
35577;BME280;21680;52.400;16.920;2023-06-22T00:00:58;100972.75;;;20.84;78.89
35577;BME280;21680;52.400;16.920;2023-06-22T00:03:24;100970.52;;;20.82;78.97
35577;BME280;21680;52.400;16.920;2023-06-22T00:05:51;100970.92;;;20.80;78.99
35577;BME280;21680;52.400;16.920;2023-06-22T00:08:17;100968.28;;;20.79;79.05
35577;BME280;21680;52.400;16.920;2023-06-22T00:10:43;100973.70;;;20.77;79.29
35577;BME280;21680;52.400;16.920;2023-06-22T00:13:10;100984.25;;;20.77;79.42
35577;BME280;21680;52.400;16.920;2023-06-22T00:15:36;100983.53;;;20.74;79.32
35577;BME280;21680;52.400;16.920;2023-06-22T00:18:02;100984.25;;;20.74;79.38
35577;BME280;21680;52.400;16.920;2023-06-22T00:20:28;100987.29;;;20.73;79.65
35577;BME280;21680;52.400;16.920;2023-06-22T00:22:54;100999.19;;;20.71;79.64
35577;BME280;21680;52.400;16.920;2023-06-22T00:25:20;101002.02;;;20.70;79.72
35577;BME280;21680;52.400;16.920;2023-06-22T00:27:46;101005.39;;;20.69;79.81
35577;BME280;21680;52.400;16.920;2023-06-22T00:30:11;101005.52;;;20.67;79.78
35577;BME280;21680;52.400;16.920;2023-06-22T00:32:37;101009.55;;;20.65;79.96
35577;BME280;21680;52.400;16.920;2023-06-22T00:35:02;101009.80;;;20.64;79.98
35577;BME280;21680;52.400;16.920;2023-06-22T00:37:27;101011.92;;;20.60;79.92
35577;BME280;21680;52.400;16.920;2023-06-22T00:39:55;101007.02;;;20.53;79.90
35577;BME280;21680;52.400;16.920;2023-06-22T00:42:20;101007.10;;;20.48;80.15
35577;BME280;21680;52.400;16.920;2023-06-22T00:44:46;101008.38;;;20.45;80.17
35577;BME280;21680;52.400;16.920;2023-06-22T00:47:13;101009.91;;;20.42;80.34
35577;BME280;21680;52.400;16.920;2023-06-22T00:49:40;101016.50;;;20.39;80.49
35577;BME280;21680;52.400;16.920;2023-06-22T00:52:06;101011.99;;;20.36;80.72
35577;BME280;21680;52.400;16.920;2023-06-22T00:54:42;101012.11;;;20.34;80.73
35577;BME280;21680;52.400;16.920;2023-06-22T00:57:12;101020.52;;;20.31;80.84
35577;BME280;21680;52.400;16.920;2023-06-22T00:59:45;101021.52;;;20.27;81.16
35577;BME280;21680;52.400;16.920;2023-06-22T01:02:11;101020.38;;;20.24;81.40
35577;BME280;21680;52.400;16.920;2023-06-22T01:04:38;101019.42;;;20.20;81.34
35577;BME280;21680;52.400;16.920;2023-06-22T01:07:19;101021.19;;;20.16;81.64
35577;BME280;21680;52.400;16.920;2023-06-22T01:10:07;101020.59;;;20.12;81.84
35577;BME280;21680;52.400;16.920;2023-06-22T01:12:41;101020.60;;;20.09;82.08
35577;BME280;21680;52.400;16.920;2023-06-22T01:15:12;101025.52;;;20.07;82.37
35577;BME280;21680;52.400;16.920;2023-06-22T01:17:40;101024.54;;;20.05;82.33
35577;BME280;21680;52.400;16.920;2023-06-22T01:20:09;101026.47;;;19.99;82.77
35577;BME280;21680;52.400;16.920;2023-06-22T01:25:33;101025.94;;;19.90;83.24
35577;BME280;21680;52.400;16.920;2023-06-22T01:30:59;101022.70;;;19.85;83.52
35577;BME280;21680;52.400;16.920;2023-06-22T01:33:35;101026.23;;;19.81;83.64
35577;BME280;21680;52.400;16.920;2023-06-22T01:36:03;101026.66;;;19.77;83.88
35577;BME280;21680;52.400;16.920;2023-06-22T01:38:30;101028.00;;;19.76;84.03
35577;BME280;21680;52.400;16.920;2023-06-22T01:40:57;101028.40;;;19.76;84.13
35577;BME280;21680;52.400;16.920;2023-06-22T01:43:25;101032.27;;;19.75;84.11
35577;BME280;21680;52.400;16.920;2023-06-22T01:45:51;101035.67;;;19.73;84.28
35577;BME280;21680;52.400;16.920;2023-06-22T01:48:18;101040.02;;;19.73;84.34
35577;BME280;21680;52.400;16.920;2023-06-22T01:50:44;101047.22;;;19.72;84.40
35577;BME280;21680;52.400;16.920;2023-06-22T01:53:10;101048.20;;;19.71;84.52
35577;BME280;21680;52.400;16.920;2023-06-22T01:55:35;101049.35;;;19.70;84.82
35577;BME280;21680;52.400;16.920;2023-06-22T01:58:00;101053.35;;;19.70;84.96
35577;BME280;21680;52.400;16.920;2023-06-22T02:00:28;101056.96;;;19.70;85.06
35577;BME280;21680;52.400;16.920;2023-06-22T02:03:00;101052.80;;;19.70;85.23
35577;BME280;21680;52.400;16.920;2023-06-22T02:05:32;101050.41;;;19.68;85.42
35577;BME280;21680;52.400;16.920;2023-06-22T02:08:09;101050.70;;;19.64;85.59
35577;BME280;21680;52.400;16.920;2023-06-22T02:10:36;101049.41;;;19.60;85.83
35577;BME280;21680;52.400;16.920;2023-06-22T02:13:06;101050.80;;;19.56;85.96
35577;BME280;21680;52.400;16.920;2023-06-22T02:15:31;101055.08;;;19.52;86.34
35577;BME280;21680;52.400;16.920;2023-06-22T02:17:57;101060.10;;;19.50;86.56
35577;BME280;21680;52.400;16.920;2023-06-22T02:20:24;101060.66;;;19.49;86.71
35577;BME280;21680;52.400;16.920;2023-06-22T02:22:49;101057.17;;;19.50;86.80
35577;BME280;21680;52.400;16.920;2023-06-22T02:25:14;101061.20;;;19.49;86.56
35577;BME280;21680;52.400;16.920;2023-06-22T02:27:40;101069.22;;;19.51;86.60
35577;BME280;21680;52.400;16.920;2023-06-22T02:30:08;101077.27;;;19.56;86.57
35577;BME280;21680;52.400;16.920;2023-06-22T02:32:34;101076.61;;;19.60;86.64
35577;BME280;21680;52.400;16.920;2023-06-22T02:34:59;101081.63;;;19.63;86.50
35577;BME280;21680;52.400;16.920;2023-06-22T02:37:24;101086.87;;;19.68;86.34
35577;BME280;21680;52.400;16.920;2023-06-22T02:39:50;101084.77;;;19.71;85.98
35577;BME280;21680;52.400;16.920;2023-06-22T02:42:15;101083.66;;;19.76;85.98
35577;BME280;21680;52.400;16.920;2023-06-22T02:44:45;101083.50;;;19.79;85.58
35577;BME280;21680;52.400;16.920;2023-06-22T02:47:10;101087.49;;;19.76;85.17
35577;BME280;21680;52.400;16.920;2023-06-22T02:49:36;101095.32;;;19.74;84.87
35577;BME280;21680;52.400;16.920;2023-06-22T02:52:01;101091.33;;;19.71;84.48
35577;BME280;21680;52.400;16.920;2023-06-22T02:54:26;101089.02;;;19.68;84.18
35577;BME280;21680;52.400;16.920;2023-06-22T02:56:51;101091.27;;;19.65;83.85
35577;BME280;21680;52.400;16.920;2023-06-22T02:59:16;101095.98;;;19.62;83.44
35577;BME280;21680;52.400;16.920;2023-06-22T03:01:42;101093.54;;;19.59;83.22
35577;BME280;21680;52.400;16.920;2023-06-22T03:04:08;101085.52;;;19.52;82.93
35577;BME280;21680;52.400;16.920;2023-06-22T03:06:34;101084.31;;;19.46;82.69
35577;BME280;21680;52.400;16.920;2023-06-22T03:09:01;101086.39;;;19.42;82.50
35577;BME280;21680;52.400;16.920;2023-06-22T03:11:27;101093.63;;;19.37;82.29
35577;BME280;21680;52.400;16.920;2023-06-22T03:13:52;101099.56;;;19.36;82.15
35577;BME280;21680;52.400;16.920;2023-06-22T03:16:19;101097.35;;;19.31;81.96
35577;BME280;21680;52.400;16.920;2023-06-22T03:18:44;101095.16;;;19.29;81.82
35577;BME280;21680;52.400;16.920;2023-06-22T03:21:10;101095.42;;;19.25;81.71
35577;BME280;21680;52.400;16.920;2023-06-22T03:23:35;101096.27;;;19.21;81.38
35577;BME280;21680;52.400;16.920;2023-06-22T03:26:01;101098.06;;;19.19;81.22
35577;BME280;21680;52.400;16.920;2023-06-22T03:28:26;101098.33;;;19.15;80.95
35577;BME280;21680;52.400;16.920;2023-06-22T03:30:52;101099.35;;;19.11;80.74
35577;BME280;21680;52.400;16.920;2023-06-22T03:33:17;101105.40;;;19.07;80.61
35577;BME280;21680;52.400;16.920;2023-06-22T03:35:42;101110.75;;;19.06;80.47
35577;BME280;21680;52.400;16.920;2023-06-22T03:38:07;101108.91;;;19.04;80.41
35577;BME280;21680;52.400;16.920;2023-06-22T03:40:33;101101.45;;;19.02;80.32
35577;BME280;21680;52.400;16.920;2023-06-22T03:42:58;101102.60;;;19.01;80.29
35577;BME280;21680;52.400;16.920;2023-06-22T03:45:23;101105.30;;;18.99;80.06
35577;BME280;21680;52.400;16.920;2023-06-22T03:47:48;101111.38;;;18.97;80.10
35577;BME280;21680;52.400;16.920;2023-06-22T03:50:14;101111.20;;;18.97;80.03
35577;BME280;21680;52.400;16.920;2023-06-22T03:52:40;101108.42;;;18.96;79.82
35577;BME280;21680;52.400;16.920;2023-06-22T03:55:06;101109.36;;;18.93;79.71
35577;BME280;21680;52.400;16.920;2023-06-22T03:57:32;101107.08;;;18.94;79.77
35577;BME280;21680;52.400;16.920;2023-06-22T03:59:57;101106.64;;;18.95;79.62
35577;BME280;21680;52.400;16.920;2023-06-22T04:02:23;101109.59;;;18.94;79.53
35577;BME280;21680;52.400;16.920;2023-06-22T04:04:48;101116.69;;;18.94;79.45
35577;BME280;21680;52.400;16.920;2023-06-22T04:07:14;101125.79;;;18.96;79.37
35577;BME280;21680;52.400;16.920;2023-06-22T04:09:39;101133.87;;;18.97;79.25
35577;BME280;21680;52.400;16.920;2023-06-22T04:12:05;101138.16;;;18.98;79.03
35577;BME280;21680;52.400;16.920;2023-06-22T04:14:30;101141.28;;;18.99;78.93
35577;BME280;21680;52.400;16.920;2023-06-22T04:16:55;101142.05;;;19.04;78.92
35577;BME280;21680;52.400;16.920;2023-06-22T04:19:20;101145.42;;;19.07;78.96
35577;BME280;21680;52.400;16.920;2023-06-22T04:21:46;101150.29;;;19.08;78.69
35577;BME280;21680;52.400;16.920;2023-06-22T04:24:14;101149.30;;;19.09;78.65
35577;BME280;21680;52.400;16.920;2023-06-22T04:26:39;101139.23;;;19.11;78.59
35577;BME280;21680;52.400;16.920;2023-06-22T04:29:07;101144.86;;;19.13;78.49
35577;BME280;21680;52.400;16.920;2023-06-22T04:31:34;101148.38;;;19.17;78.41
35577;BME280;21680;52.400;16.920;2023-06-22T04:34:02;101145.52;;;19.21;78.24
35577;BME280;21680;52.400;16.920;2023-06-22T04:36:36;101147.73;;;19.24;78.03
35577;BME280;21680;52.400;16.920;2023-06-22T04:39:09;101153.78;;;19.25;77.84
35577;BME280;21680;52.400;16.920;2023-06-22T04:41:40;101153.61;;;19.28;77.79
35577;BME280;21680;52.400;16.920;2023-06-22T04:44:12;101155.48;;;19.32;77.69
35577;BME280;21680;52.400;16.920;2023-06-22T04:46:38;101156.99;;;19.36;77.55
35577;BME280;21680;52.400;16.920;2023-06-22T04:49:05;101149.25;;;19.38;77.34
35577;BME280;21680;52.400;16.920;2023-06-22T04:51:32;101150.36;;;19.40;77.25
35577;BME280;21680;52.400;16.920;2023-06-22T04:53:57;101147.59;;;19.40;77.23
35577;BME280;21680;52.400;16.920;2023-06-22T04:56:26;101152.35;;;19.44;77.02
35577;BME280;21680;52.400;16.920;2023-06-22T04:58:53;101147.90;;;19.48;76.95
35577;BME280;21680;52.400;16.920;2023-06-22T05:01:23;101144.70;;;19.50;76.86
35577;BME280;21680;52.400;16.920;2023-06-22T05:03:48;101144.20;;;19.53;76.67
35577;BME280;21680;52.400;16.920;2023-06-22T05:06:14;101147.80;;;19.55;76.66
35577;BME280;21680;52.400;16.920;2023-06-22T05:08:40;101153.30;;;19.60;76.59
35577;BME280;21680;52.400;16.920;2023-06-22T05:11:05;101153.64;;;19.62;76.30
35577;BME280;21680;52.400;16.920;2023-06-22T05:13:31;101151.06;;;19.63;76.09
35577;BME280;21680;52.400;16.920;2023-06-22T05:15:56;101150.84;;;19.66;75.99
35577;BME280;21680;52.400;16.920;2023-06-22T05:18:30;101151.60;;;19.68;75.87
35577;BME280;21680;52.400;16.920;2023-06-22T05:20:56;101149.03;;;19.68;75.50
35577;BME280;21680;52.400;16.920;2023-06-22T05:23:21;101149.12;;;19.69;75.22
35577;BME280;21680;52.400;16.920;2023-06-22T05:25:46;101143.65;;;19.72;74.87
35577;BME280;21680;52.400;16.920;2023-06-22T05:28:12;101143.83;;;19.75;74.52
35577;BME280;21680;52.400;16.920;2023-06-22T05:30:37;101148.48;;;19.78;74.39
35577;BME280;21680;52.400;16.920;2023-06-22T05:33:03;101147.45;;;19.83;74.23
35577;BME280;21680;52.400;16.920;2023-06-22T05:35:28;101146.90;;;19.85;73.69
35577;BME280;21680;52.400;16.920;2023-06-22T05:37:54;101144.45;;;19.89;73.49
35577;BME280;21680;52.400;16.920;2023-06-22T05:40:20;101140.80;;;19.94;73.33
35577;BME280;21680;52.400;16.920;2023-06-22T05:42:45;101141.90;;;19.96;73.03
35577;BME280;21680;52.400;16.920;2023-06-22T05:45:10;101144.32;;;19.95;72.51
35577;BME280;21680;52.400;16.920;2023-06-22T05:47:35;101152.36;;;19.94;71.90
35577;BME280;21680;52.400;16.920;2023-06-22T05:50:01;101148.46;;;19.93;71.54
35577;BME280;21680;52.400;16.920;2023-06-22T05:52:26;101152.80;;;19.96;71.69
35577;BME280;21680;52.400;16.920;2023-06-22T05:54:51;101155.34;;;20.01;71.70
35577;BME280;21680;52.400;16.920;2023-06-22T05:57:16;101156.30;;;20.04;71.74
35577;BME280;21680;52.400;16.920;2023-06-22T05:59:42;101154.17;;;20.09;71.74
35577;BME280;21680;52.400;16.920;2023-06-22T06:02:07;101153.86;;;20.15;71.62
35577;BME280;21680;52.400;16.920;2023-06-22T06:04:32;101159.96;;;20.21;71.46
35577;BME280;21680;52.400;16.920;2023-06-22T06:06:57;101162.49;;;20.23;71.53
35577;BME280;21680;52.400;16.920;2023-06-22T06:09:23;101164.07;;;20.27;71.49
35577;BME280;21680;52.400;16.920;2023-06-22T06:11:48;101158.48;;;20.31;71.31
35577;BME280;21680;52.400;16.920;2023-06-22T06:14:13;101152.08;;;20.34;71.12
35577;BME280;21680;52.400;16.920;2023-06-22T06:16:38;101153.16;;;20.34;70.97
35577;BME280;21680;52.400;16.920;2023-06-22T06:19:03;101157.01;;;20.41;70.89
35577;BME280;21680;52.400;16.920;2023-06-22T06:21:29;101160.54;;;20.47;70.77
35577;BME280;21680;52.400;16.920;2023-06-22T06:23:54;101163.77;;;20.52;70.79
35577;BME280;21680;52.400;16.920;2023-06-22T06:26:19;101164.77;;;20.58;70.64
35577;BME280;21680;52.400;16.920;2023-06-22T06:28:54;101161.75;;;20.60;70.29
35577;BME280;21680;52.400;16.920;2023-06-22T06:31:19;101162.13;;;20.62;70.19
35577;BME280;21680;52.400;16.920;2023-06-22T06:33:46;101153.95;;;20.69;70.23
35577;BME280;21680;52.400;16.920;2023-06-22T06:36:11;101155.73;;;20.77;70.10
35577;BME280;21680;52.400;16.920;2023-06-22T06:38:36;101160.25;;;20.81;69.94
35577;BME280;21680;52.400;16.920;2023-06-22T06:41:01;101166.30;;;20.82;69.61
35577;BME280;21680;52.400;16.920;2023-06-22T06:43:27;101167.95;;;20.78;69.50
35577;BME280;21680;52.400;16.920;2023-06-22T06:45:52;101166.56;;;20.75;68.89
35577;BME280;21680;52.400;16.920;2023-06-22T06:48:17;101168.07;;;20.74;69.06
35577;BME280;21680;52.400;16.920;2023-06-22T06:50:43;101168.06;;;20.81;69.16
35577;BME280;21680;52.400;16.920;2023-06-22T06:53:09;101170.05;;;20.88;68.72
35577;BME280;21680;52.400;16.920;2023-06-22T06:55:34;101177.33;;;20.92;68.55
35577;BME280;21680;52.400;16.920;2023-06-22T06:58:01;101179.22;;;20.96;68.32
35577;BME280;21680;52.400;16.920;2023-06-22T07:00:27;101182.89;;;20.95;68.27
35577;BME280;21680;52.400;16.920;2023-06-22T07:02:52;101188.89;;;20.98;68.16
35577;BME280;21680;52.400;16.920;2023-06-22T07:05:18;101191.05;;;21.02;67.98
35577;BME280;21680;52.400;16.920;2023-06-22T07:07:43;101190.96;;;21.06;67.69
35577;BME280;21680;52.400;16.920;2023-06-22T07:10:09;101186.77;;;21.08;67.50
35577;BME280;21680;52.400;16.920;2023-06-22T07:12:35;101181.23;;;21.12;67.62
35577;BME280;21680;52.400;16.920;2023-06-22T07:15:02;101178.37;;;21.21;67.69
35577;BME280;21680;52.400;16.920;2023-06-22T07:17:28;101173.67;;;21.30;67.65
35577;BME280;21680;52.400;16.920;2023-06-22T07:19:53;101166.58;;;21.36;67.43
35577;BME280;21680;52.400;16.920;2023-06-22T07:22:18;101171.96;;;21.44;66.77
35577;BME280;21680;52.400;16.920;2023-06-22T07:24:44;101167.38;;;21.47;66.61
35577;BME280;21680;52.400;16.920;2023-06-22T07:27:09;101174.84;;;21.53;66.56
35577;BME280;21680;52.400;16.920;2023-06-22T07:29:36;101179.20;;;21.62;66.61
35577;BME280;21680;52.400;16.920;2023-06-22T07:32:01;101171.98;;;21.68;66.19
35577;BME280;21680;52.400;16.920;2023-06-22T07:34:29;101167.58;;;21.71;66.00
35577;BME280;21680;52.400;16.920;2023-06-22T07:36:55;101165.10;;;21.79;65.82
35577;BME280;21680;52.400;16.920;2023-06-22T07:39:20;101157.90;;;21.87;65.73
35577;BME280;21680;52.400;16.920;2023-06-22T07:41:51;101157.52;;;21.92;65.48
35577;BME280;21680;52.400;16.920;2023-06-22T07:44:16;101156.25;;;21.94;65.22
35577;BME280;21680;52.400;16.920;2023-06-22T07:46:41;101160.27;;;21.98;65.00
35577;BME280;21680;52.400;16.920;2023-06-22T07:49:07;101159.85;;;22.03;64.81
35577;BME280;21680;52.400;16.920;2023-06-22T07:51:33;101160.52;;;22.06;64.43
35577;BME280;21680;52.400;16.920;2023-06-22T07:53:58;101156.92;;;22.06;64.23
35577;BME280;21680;52.400;16.920;2023-06-22T07:56:24;101155.81;;;22.06;63.94
35577;BME280;21680;52.400;16.920;2023-06-22T07:58:49;101155.88;;;22.09;63.65
35577;BME280;21680;52.400;16.920;2023-06-22T08:01:15;101164.73;;;22.21;63.44
35577;BME280;21680;52.400;16.920;2023-06-22T08:03:40;101168.28;;;22.28;62.77
35577;BME280;21680;52.400;16.920;2023-06-22T08:06:06;101169.66;;;22.31;62.38
35577;BME280;21680;52.400;16.920;2023-06-22T08:08:35;101169.56;;;22.33;62.16
35577;BME280;21680;52.400;16.920;2023-06-22T08:11:00;101165.77;;;22.37;61.70
35577;BME280;21680;52.400;16.920;2023-06-22T08:13:25;101171.41;;;22.50;61.38
35577;BME280;21680;52.400;16.920;2023-06-22T08:15:50;101163.10;;;22.63;61.29
35577;BME280;21680;52.400;16.920;2023-06-22T08:18:16;101160.63;;;22.73;60.92
35577;BME280;21680;52.400;16.920;2023-06-22T08:20:41;101163.37;;;22.80;60.70
35577;BME280;21680;52.400;16.920;2023-06-22T08:23:07;101156.01;;;22.83;60.34
35577;BME280;21680;52.400;16.920;2023-06-22T08:25:33;101162.71;;;22.85;59.86
35577;BME280;21680;52.400;16.920;2023-06-22T08:28:00;101163.55;;;22.90;59.25
35577;BME280;21680;52.400;16.920;2023-06-22T08:30:25;101159.29;;;22.95;59.03
35577;BME280;21680;52.400;16.920;2023-06-22T08:32:51;101158.87;;;23.02;59.22
35577;BME280;21680;52.400;16.920;2023-06-22T08:35:16;101160.27;;;23.07;58.92
35577;BME280;21680;52.400;16.920;2023-06-22T08:37:41;101167.52;;;23.13;59.05
35577;BME280;21680;52.400;16.920;2023-06-22T08:40:09;101167.73;;;23.21;58.53
35577;BME280;21680;52.400;16.920;2023-06-22T08:42:39;101163.59;;;23.25;57.95
35577;BME280;21680;52.400;16.920;2023-06-22T08:45:06;101165.56;;;23.27;57.56
35577;BME280;21680;52.400;16.920;2023-06-22T08:47:31;101167.21;;;23.29;56.44
35577;BME280;21680;52.400;16.920;2023-06-22T08:49:57;101159.74;;;23.31;55.93
35577;BME280;21680;52.400;16.920;2023-06-22T08:52:23;101159.06;;;23.35;55.79
35577;BME280;21680;52.400;16.920;2023-06-22T08:54:49;101155.56;;;23.41;55.75
35577;BME280;21680;52.400;16.920;2023-06-22T08:57:15;101152.42;;;23.52;54.56
35577;BME280;21680;52.400;16.920;2023-06-22T08:59:41;101150.29;;;23.61;53.19
35577;BME280;21680;52.400;16.920;2023-06-22T09:02:07;101146.48;;;23.69;52.32
35577;BME280;21680;52.400;16.920;2023-06-22T09:04:32;101139.20;;;23.73;52.44
35577;BME280;21680;52.400;16.920;2023-06-22T09:07:00;101132.98;;;23.75;51.71
35577;BME280;21680;52.400;16.920;2023-06-22T09:09:26;101130.25;;;23.83;51.68
35577;BME280;21680;52.400;16.920;2023-06-22T09:11:51;101120.85;;;23.96;51.79
35577;BME280;21680;52.400;16.920;2023-06-22T09:14:16;101118.54;;;24.09;51.48
35577;BME280;21680;52.400;16.920;2023-06-22T09:16:41;101117.58;;;24.19;51.15
35577;BME280;21680;52.400;16.920;2023-06-22T09:19:07;101117.35;;;24.24;50.84
35577;BME280;21680;52.400;16.920;2023-06-22T09:21:32;101115.98;;;24.22;50.78
35577;BME280;21680;52.400;16.920;2023-06-22T09:23:57;101125.70;;;24.28;50.73
35577;BME280;21680;52.400;16.920;2023-06-22T09:26:23;101124.13;;;24.34;49.99
35577;BME280;21680;52.400;16.920;2023-06-22T09:28:49;101126.04;;;24.35;49.45
35577;BME280;21680;52.400;16.920;2023-06-22T09:31:14;101118.65;;;24.39;49.41
35577;BME280;21680;52.400;16.920;2023-06-22T09:33:41;101115.85;;;24.42;49.39
35577;BME280;21680;52.400;16.920;2023-06-22T09:36:07;101110.00;;;24.48;48.95
35577;BME280;21680;52.400;16.920;2023-06-22T09:38:38;101110.19;;;24.57;48.48
35577;BME280;21680;52.400;16.920;2023-06-22T09:41:04;101108.65;;;24.66;48.09
35577;BME280;21680;52.400;16.920;2023-06-22T09:43:31;101107.20;;;24.75;47.22
35577;BME280;21680;52.400;16.920;2023-06-22T09:45:57;101103.35;;;24.81;47.28
35577;BME280;21680;52.400;16.920;2023-06-22T09:48:23;101107.79;;;24.82;47.00
35577;BME280;21680;52.400;16.920;2023-06-22T09:50:48;101102.45;;;24.84;46.60
35577;BME280;21680;52.400;16.920;2023-06-22T09:53:13;101100.31;;;24.82;45.20
35577;BME280;21680;52.400;16.920;2023-06-22T09:55:38;101100.30;;;24.80;44.46
35577;BME280;21680;52.400;16.920;2023-06-22T09:58:04;101093.63;;;24.81;43.76
35577;BME280;21680;52.400;16.920;2023-06-22T10:00:29;101095.19;;;24.82;43.54
35577;BME280;21680;52.400;16.920;2023-06-22T10:02:54;101098.27;;;24.88;43.49
35577;BME280;21680;52.400;16.920;2023-06-22T10:05:21;101095.23;;;24.97;43.77
35577;BME280;21680;52.400;16.920;2023-06-22T10:07:46;101092.47;;;25.05;43.59
35577;BME280;21680;52.400;16.920;2023-06-22T10:10:12;101097.20;;;25.16;43.09
35577;BME280;21680;52.400;16.920;2023-06-22T10:12:56;101098.91;;;25.23;42.87
35577;BME280;21680;52.400;16.920;2023-06-22T10:15:23;101098.65;;;25.23;43.09
35577;BME280;21680;52.400;16.920;2023-06-22T10:17:48;101093.70;;;25.26;43.13
35577;BME280;21680;52.400;16.920;2023-06-22T10:20:14;101094.52;;;25.36;42.95
35577;BME280;21680;52.400;16.920;2023-06-22T10:22:44;101096.70;;;25.45;42.93
35577;BME280;21680;52.400;16.920;2023-06-22T10:25:11;101094.66;;;25.51;43.13
35577;BME280;21680;52.400;16.920;2023-06-22T10:27:37;101086.11;;;25.56;43.12
35577;BME280;21680;52.400;16.920;2023-06-22T10:30:09;101082.24;;;25.64;43.30
35577;BME280;21680;52.400;16.920;2023-06-22T10:32:36;101078.61;;;25.75;43.01
35577;BME280;21680;52.400;16.920;2023-06-22T10:35:02;101085.00;;;25.84;43.12
35577;BME280;21680;52.400;16.920;2023-06-22T10:37:27;101089.80;;;26.01;42.88
35577;BME280;21680;52.400;16.920;2023-06-22T10:39:53;101097.95;;;26.13;42.76
35577;BME280;21680;52.400;16.920;2023-06-22T10:42:18;101097.90;;;26.15;42.70
35577;BME280;21680;52.400;16.920;2023-06-22T10:44:43;101088.75;;;26.16;43.05
35577;BME280;21680;52.400;16.920;2023-06-22T10:47:09;101082.13;;;26.28;42.50
35577;BME280;21680;52.400;16.920;2023-06-22T10:49:37;101080.27;;;26.39;42.47
35577;BME280;21680;52.400;16.920;2023-06-22T10:52:02;101087.99;;;26.46;42.13
35577;BME280;21680;52.400;16.920;2023-06-22T10:54:27;101090.70;;;26.48;41.93
35577;BME280;21680;52.400;16.920;2023-06-22T10:56:54;101088.14;;;26.56;41.88
35577;BME280;21680;52.400;16.920;2023-06-22T10:59:19;101080.08;;;26.69;41.96
35577;BME280;21680;52.400;16.920;2023-06-22T11:01:46;101080.75;;;26.76;41.52
35577;BME280;21680;52.400;16.920;2023-06-22T11:04:12;101084.74;;;26.82;40.97
35577;BME280;21680;52.400;16.920;2023-06-22T11:06:37;101081.90;;;26.85;40.86
35577;BME280;21680;52.400;16.920;2023-06-22T11:09:02;101079.83;;;26.92;41.10
35577;BME280;21680;52.400;16.920;2023-06-22T11:11:29;101077.02;;;27.05;41.09
35577;BME280;21680;52.400;16.920;2023-06-22T11:13:54;101069.56;;;27.18;41.12
35577;BME280;21680;52.400;16.920;2023-06-22T11:16:19;101066.41;;;27.27;41.23
35577;BME280;21680;52.400;16.920;2023-06-22T11:18:44;101061.21;;;27.34;41.08
35577;BME280;21680;52.400;16.920;2023-06-22T11:21:09;101060.92;;;27.37;40.11
35577;BME280;21680;52.400;16.920;2023-06-22T11:23:35;101052.98;;;27.31;40.27
35577;BME280;21680;52.400;16.920;2023-06-22T11:26:00;101043.15;;;27.36;40.41
35577;BME280;21680;52.400;16.920;2023-06-22T11:28:25;101040.94;;;27.47;40.29
35577;BME280;21680;52.400;16.920;2023-06-22T11:30:51;101043.45;;;27.61;40.63
35577;BME280;21680;52.400;16.920;2023-06-22T11:33:16;101042.79;;;27.77;40.37
35577;BME280;21680;52.400;16.920;2023-06-22T11:35:42;101039.65;;;27.92;40.34
35577;BME280;21680;52.400;16.920;2023-06-22T11:38:07;101045.79;;;28.00;39.65
35577;BME280;21680;52.400;16.920;2023-06-22T11:40:32;101043.94;;;28.03;39.81
35577;BME280;21680;52.400;16.920;2023-06-22T11:42:58;101041.05;;;28.11;39.95
35577;BME280;21680;52.400;16.920;2023-06-22T11:45:23;101041.08;;;28.07;39.68
35577;BME280;21680;52.400;16.920;2023-06-22T11:47:48;101044.23;;;28.17;39.90
35577;BME280;21680;52.400;16.920;2023-06-22T11:50:14;101040.06;;;28.23;39.74
35577;BME280;21680;52.400;16.920;2023-06-22T11:52:39;101027.55;;;28.33;39.67
35577;BME280;21680;52.400;16.920;2023-06-22T11:55:06;101021.48;;;28.48;39.61
35577;BME280;21680;52.400;16.920;2023-06-22T11:57:38;101022.46;;;28.58;39.51
35577;BME280;21680;52.400;16.920;2023-06-22T12:00:05;101026.92;;;28.66;39.04
35577;BME280;21680;52.400;16.920;2023-06-22T12:02:41;101025.04;;;28.61;38.85
35577;BME280;21680;52.400;16.920;2023-06-22T12:05:07;101030.95;;;28.69;38.67
35577;BME280;21680;52.400;16.920;2023-06-22T12:07:33;101031.47;;;28.66;38.35
35577;BME280;21680;52.400;16.920;2023-06-22T12:09:58;101033.25;;;28.71;38.29
35577;BME280;21680;52.400;16.920;2023-06-22T12:12:24;101032.20;;;28.66;38.10
35577;BME280;21680;52.400;16.920;2023-06-22T12:14:49;101025.36;;;28.75;38.12
35577;BME280;21680;52.400;16.920;2023-06-22T12:17:14;101023.93;;;28.78;37.44
35577;BME280;21680;52.400;16.920;2023-06-22T12:19:40;101025.42;;;28.75;37.29
35577;BME280;21680;52.400;16.920;2023-06-22T12:22:05;101018.77;;;28.69;36.76
35577;BME280;21680;52.400;16.920;2023-06-22T12:24:30;101015.02;;;28.73;37.25
35577;BME280;21680;52.400;16.920;2023-06-22T12:26:55;101023.80;;;28.82;36.84
35577;BME280;21680;52.400;16.920;2023-06-22T12:29:20;101023.08;;;28.79;37.04
35577;BME280;21680;52.400;16.920;2023-06-22T12:31:46;101016.97;;;28.89;37.02
35577;BME280;21680;52.400;16.920;2023-06-22T12:34:11;101017.70;;;29.03;36.54
35577;BME280;21680;52.400;16.920;2023-06-22T12:36:36;101003.55;;;29.12;36.92
35577;BME280;21680;52.400;16.920;2023-06-22T12:39:01;101005.59;;;29.39;37.08
35577;BME280;21680;52.400;16.920;2023-06-22T12:41:27;101002.70;;;29.54;36.77